San Valentino — IQXH — position and weather

sailwx.info

Track history (hours):
 
Tides and Currents Weather Stations Pressure Air Temp Water Temp Dewpoint Dewpoint Depression Visibility Wind Speed Wind Dir Waves Ship Positions

San Valentino

Last reported at 2016-Aug-22 15:33 UTC. Time now 2016-Aug-29 07:16 UTC.
Position N 40°38' E 014°22'.

Length 39 m; draft 2.5 m.

Type: Ship. MMSI: 247065100.

Date/timePositionNaut miles runAvg speedWind from/ knotsBaromVisibWave heightAir tempDewpointWater temp
2016-Aug-22 15:33N 40°38' E 014°22'3 2.5
2016-Aug-22 14:20N 40°36' E 014°25'4 1.2
2016-Aug-22 11:07N 40°37' E 014°30'4 6.2
2016-Aug-22 10:26N 40°36' E 014°25'5 2.7
2016-Aug-22 08:33N 40°36' E 014°18'4 3.7
2016-Aug-22 07:30N 40°38' E 014°23'0 0.0
2016-Aug-21 15:33N 40°38' E 014°22'3 2.7
2016-Aug-21 14:31N 40°35' E 014°24'6 1.8
2016-Aug-21 11:07N 40°36' E 014°32'3 5.4
2016-Aug-21 10:33N 40°37' E 014°28'9 9.3
2016-Aug-21 09:33N 40°33' E 014°17'3 2.6
2016-Aug-21 08:33N 40°35' E 014°18'2 0.1
2016-Aug-20 15:33N 40°37' E 014°19'6 6.0
2016-Aug-20 14:32N 40°37' E 014°27'2 0.6
2016-Aug-20 11:20N 40°37' E 014°30'3 3.3
2016-Aug-20 10:30N 40°35' E 014°27'8 8.1
2016-Aug-20 09:33N 40°33' E 014°17'2 1.6
2016-Aug-20 08:33N 40°34' E 014°17'3 0.2
2016-Aug-19 15:34N 40°37' E 014°19'6 5.6
2016-Aug-19 14:28N 40°37' E 014°27'3 1.1
2016-Aug-19 11:22N 40°36' E 014°32'3 3.6
2016-Aug-19 10:29N 40°36' E 014°28'8 9.1
2016-Aug-19 09:33N 40°33' E 014°17'2 1.6
2016-Aug-19 08:33N 40°34' E 014°17'6 0.3
2016-Aug-18 15:33N 40°38' E 014°22'3 2.6
2016-Aug-18 14:26N 40°36' E 014°25'4 1.4
2016-Aug-18 11:10N 40°37' E 014°30'4 5.1
2016-Aug-18 10:18N 40°36' E 014°25'5 3.0
2016-Aug-18 08:33N 40°35' E 014°18'4 0.3
2016-Aug-17 15:33N 40°38' E 014°23'3 2.2
2016-Aug-17 14:20N 40°36' E 014°25'6 1.3
2016-Aug-17 09:33N 40°33' E 014°17'3 2.6
2016-Aug-17 08:33N 40°36' E 014°18'4 0.2
2016-Aug-16 15:33N 40°38' E 014°21'4 3.3
2016-Aug-16 14:22N 40°36' E 014°26'4 1.4
2016-Aug-16 11:10N 40°36' E 014°32'4 5.9
2016-Aug-16 10:31N 40°36' E 014°27'6 3.2
2016-Aug-16 08:33N 40°36' E 014°18'1 0.1
2016-Aug-15 23:33N 40°37' E 014°19'6 5.8
2016-Aug-15 22:33N 40°37' E 014°27'0 0.0
2016-Aug-15 20:33N 40°36' E 014°27'8 6.4
2016-Aug-15 19:14N 40°33' E 014°17'6 8.9
2016-Aug-15 18:33N 40°38' E 014°21'1 0.2
2016-Aug-15 15:33N 40°38' E 014°22'4 3.0
2016-Aug-15 14:08N 40°37' E 014°28'3 1.0
2016-Aug-15 11:19N 40°36' E 014°32'7 7.0
2016-Aug-15 10:20N 40°35' E 014°23'4 2.0
2016-Aug-15 08:33N 40°36' E 014°18'1 0.1
2016-Aug-14 15:33N 40°37' E 014°19'6 5.7
2016-Aug-14 14:30N 40°36' E 014°27'3 1.0
2016-Aug-14 11:16N 40°36' E 014°31'4 6.0
2016-Aug-14 10:31N 40°36' E 014°26'5 2.7
2016-Aug-14 08:33N 40°37' E 014°19'3 0.2
2016-Aug-13 15:33N 40°38' E 014°22'3 2.8
2016-Aug-13 14:27N 40°36' E 014°25'6 1.8
2016-Aug-13 11:19N 40°36' E 014°32'6 6.7
2016-Aug-13 10:28N 40°36' E 014°24'4 2.2
2016-Aug-13 08:33N 40°36' E 014°19'  
Track history (hours):
 
Tides and Currents Weather Stations Pressure Air Temp Water Temp Dewpoint Dewpoint Depression Visibility Wind Speed Wind Dir Waves Ship Positions

San Valentino

Last reported at 2016-Aug-22 15:33 UTC. Time now 2016-Aug-29 07:16 UTC.
Position N 40°38' E 014°22'.

Length 39 m; draft 2.5 m.

Type: Ship. MMSI: 247065100.

Date/timePositionNaut miles runAvg speedWind from/ knotsBaromVisibWave heightAir tempDewpointWater temp
2016-Aug-22 15:33N 40°38' E 014°22'3 2.5
2016-Aug-22 14:20N 40°36' E 014°25'4 1.2
2016-Aug-22 11:07N 40°37' E 014°30'4 6.2
2016-Aug-22 10:26N 40°36' E 014°25'5 2.7
2016-Aug-22 08:33N 40°36' E 014°18'4 3.7
2016-Aug-22 07:30N 40°38' E 014°23'0 0.0
2016-Aug-21 15:33N 40°38' E 014°22'3 2.7
2016-Aug-21 14:31N 40°35' E 014°24'6 1.8
2016-Aug-21 11:07N 40°36' E 014°32'3 5.4
2016-Aug-21 10:33N 40°37' E 014°28'9 9.3
2016-Aug-21 09:33N 40°33' E 014°17'3 2.6
2016-Aug-21 08:33N 40°35' E 014°18'2 0.1
2016-Aug-20 15:33N 40°37' E 014°19'6 6.0
2016-Aug-20 14:32N 40°37' E 014°27'2 0.6
2016-Aug-20 11:20N 40°37' E 014°30'3 3.3
2016-Aug-20 10:30N 40°35' E 014°27'8 8.1
2016-Aug-20 09:33N 40°33' E 014°17'2 1.6
2016-Aug-20 08:33N 40°34' E 014°17'3 0.2
2016-Aug-19 15:34N 40°37' E 014°19'6 5.6
2016-Aug-19 14:28N 40°37' E 014°27'3 1.1
2016-Aug-19 11:22N 40°36' E 014°32'3 3.6
2016-Aug-19 10:29N 40°36' E 014°28'8 9.1
2016-Aug-19 09:33N 40°33' E 014°17'2 1.6
2016-Aug-19 08:33N 40°34' E 014°17'6 0.3
2016-Aug-18 15:33N 40°38' E 014°22'3 2.6
2016-Aug-18 14:26N 40°36' E 014°25'4 1.4
2016-Aug-18 11:10N 40°37' E 014°30'4 5.1
2016-Aug-18 10:18N 40°36' E 014°25'5 3.0
2016-Aug-18 08:33N 40°35' E 014°18'4 0.3
2016-Aug-17 15:33N 40°38' E 014°23'3 2.2
2016-Aug-17 14:20N 40°36' E 014°25'6 1.3
2016-Aug-17 09:33N 40°33' E 014°17'3 2.6
2016-Aug-17 08:33N 40°36' E 014°18'4 0.2
2016-Aug-16 15:33N 40°38' E 014°21'4 3.3
2016-Aug-16 14:22N 40°36' E 014°26'4 1.4
2016-Aug-16 11:10N 40°36' E 014°32'4 5.9
2016-Aug-16 10:31N 40°36' E 014°27'6 3.2
2016-Aug-16 08:33N 40°36' E 014°18'1 0.1
2016-Aug-15 23:33N 40°37' E 014°19'6 5.8
2016-Aug-15 22:33N 40°37' E 014°27'0 0.0
2016-Aug-15 20:33N 40°36' E 014°27'8 6.4
2016-Aug-15 19:14N 40°33' E 014°17'6 8.9
2016-Aug-15 18:33N 40°38' E 014°21'1 0.2
2016-Aug-15 15:33N 40°38' E 014°22'4 3.0
2016-Aug-15 14:08N 40°37' E 014°28'3 1.0
2016-Aug-15 11:19N 40°36' E 014°32'7 7.0
2016-Aug-15 10:20N 40°35' E 014°23'4 2.0
2016-Aug-15 08:33N 40°36' E 014°18'1 0.1
2016-Aug-14 15:33N 40°37' E 014°19'6 5.7
2016-Aug-14 14:30N 40°36' E 014°27'3 1.0
2016-Aug-14 11:16N 40°36' E 014°31'4 6.0
2016-Aug-14 10:31N 40°36' E 014°26'5 2.7
2016-Aug-14 08:33N 40°37' E 014°19'3 0.2
2016-Aug-13 15:33N 40°38' E 014°22'3 2.8
2016-Aug-13 14:27N 40°36' E 014°25'6 1.8
2016-Aug-13 11:19N 40°36' E 014°32'6 6.7
2016-Aug-13 10:28N 40°36' E 014°24'4 2.2
2016-Aug-13 08:33N 40°36' E 014°19'  

Dump ship's entire track history